College Campus, Kentucky
Current Conditions -  °F | °C
As of 7:35 AM on Saturday 20 Dec 2014 (Local Time) from KCEY Reporting Station
Overcast Overcast  
Wind Chill: 32°   Ceiling: 5000
Heat Index: 32°   Visibility: 10mi
Dew Point: 28°   Wind: 3mph
Humidity: 87%   Direction: 60°ENE
Pressure: 30.28"   Gusts: NA
Location:  36.618°N, 88.2562°W
Report Text: KCEY 201335Z AUTO 06003KT 10SM OVC050 00/M02 A3028 RMK AO1
Loading
Personal Weather Stations






























Interactive Weather Map New forecast layout! Learn more

10-Day Weather Forecast

Advertisements
Track Severe Weather on mobile